Time;durP1;ratioP1;P1;durP2;ratioP2;P2;SDS_P1;SDS_P2;PMS_P1;PMS_P2;Temp;Humidity;BMP_temperature;BMP_pressure;BME280_temperature;BME280_humidity;BME280_pressure;Samples;Min_cycle;Max_cycle;Signal;HPM_P1;HPM_P2
2023/02/02 00:02:17;;;;;;;10.23;2.25;;;8.10;54.90;;;3.14;75.11;96489.91;4989796;28;20033;-54
2023/02/02 00:04:43;;;;;;;8.88;1.48;;;8.10;55.00;;;3.18;75.36;96492.94;4991665;28;20037;-54
2023/02/02 00:07:12;;;;;;;8.05;1.92;;;8.00;55.00;;;3.09;75.03;96488.84;4978964;28;20025;-56
2023/02/02 00:09:46;;;;;;;10.25;2.17;;;8.10;55.10;;;3.08;75.54;96487.25;4990918;28;20076;-57
2023/02/02 00:12:21;;;;;;;7.10;1.50;;;8.00;55.10;;;3.07;74.84;96475.91;4975888;28;20034;-53
2023/02/02 00:14:53;;;;;;;8.57;1.70;;;8.00;55.20;;;3.05;75.74;96479.72;4990052;28;20083;-57
2023/02/02 00:17:19;;;;;;;10.05;1.90;;;8.00;55.20;;;3.07;75.39;96472.44;4986227;28;20049;-56
2023/02/02 00:19:48;;;;;;;6.18;1.67;;;8.00;55.20;;;3.04;75.25;96471.03;4980442;28;20472;-56
2023/02/02 00:22:16;;;;;;;6.05;1.52;;;8.00;55.30;;;3.08;75.38;96476.72;4985769;28;20109;-54
2023/02/02 00:24:44;;;;;;;5.18;2.05;;;8.00;55.30;;;3.06;75.11;96463.72;4965299;28;20315;-57
2023/02/02 00:27:10;;;;;;;8.25;2.20;;;8.00;55.30;;;3.07;75.11;96464.53;4983744;28;20030;-52
2023/02/02 00:29:39;;;;;;;5.00;1.42;;;8.00;55.30;;;3.05;74.90;96456.03;4998366;28;20032;-50
2023/02/02 00:32:05;;;;;;;7.72;1.65;;;7.90;55.30;;;3.03;75.27;96453.59;4976577;28;20022;-50
2023/02/02 00:34:34;;;;;;;9.38;2.78;;;7.90;55.30;;;3.00;75.47;96456.59;4971466;28;20026;-52
2023/02/02 00:37:00;;;;;;;11.48;2.15;;;7.90;55.30;;;2.94;75.44;96463.47;4973414;28;20049;-50
2023/02/02 00:39:28;;;;;;;10.77;2.17;;;7.90;55.40;;;2.96;75.51;96458.00;5004868;28;20033;-54
2023/02/02 00:41:54;;;;;;;10.57;2.10;;;7.80;55.40;;;2.94;75.71;96468.72;4977083;28;20029;-51
2023/02/02 00:47:07;;;;;;;8.80;2.15;;;7.80;55.50;;;2.96;76.19;96466.72;4971337;28;20588;-51
2023/02/02 00:49:36;;;;;;;5.38;1.80;;;7.80;55.60;;;2.90;75.95;96453.53;4976461;28;20092;-53
2023/02/02 00:52:17;;;;;;;5.53;1.50;;;7.80;55.60;;;2.94;76.09;96465.28;5005617;28;20061;-53
2023/02/02 00:54:46;;;;;;;8.82;1.70;;;7.80;55.70;;;2.89;76.50;96470.34;4955493;28;20487;-51
2023/02/02 00:57:24;;;;;;;8.65;2.20;;;7.80;55.70;;;2.92;76.27;96476.03;4989235;28;20030;-53
2023/02/02 00:59:50;;;;;;;6.82;1.77;;;7.80;55.80;;;3.00;76.55;96481.09;4990045;28;20025;-51
2023/02/02 01:02:22;;;;;;;8.35;1.98;;;7.80;55.90;;;3.00;76.39;96477.66;4976265;28;20068;-54
2023/02/02 01:04:53;;;;;;;11.57;2.63;;;7.80;55.90;;;2.91;77.20;96468.31;4973349;28;20031;-55
2023/02/02 01:07:19;;;;;;;10.35;1.83;;;7.80;55.90;;;2.91;76.96;96482.28;4988052;28;20046;-52
2023/02/02 01:09:54;;;;;;;12.27;1.80;;;7.80;55.90;;;3.00;76.60;96493.47;4996987;28;20096;-52
2023/02/02 01:12:20;;;;;;;7.78;1.90;;;7.80;56.00;;;2.98;77.23;96495.50;4973242;28;20030;-54
2023/02/02 01:14:49;;;;;;;7.70;2.33;;;7.80;56.00;;;2.95;77.00;96501.94;4984897;28;20026;-55
2023/02/02 01:17:24;;;;;;;7.50;2.22;;;7.80;56.10;;;2.96;77.14;96508.03;4970382;28;20045;-56
2023/02/02 01:19:52;;;;;;;10.77;1.88;;;7.80;56.10;;;2.93;77.55;96500.50;4970182;28;20034;-56
2023/02/02 01:22:21;;;;;;;6.70;1.75;;;7.80;56.10;;;2.97;77.12;96512.28;4984074;28;20022;-52
2023/02/02 01:24:47;;;;;;;11.98;2.25;;;7.80;56.10;;;2.96;77.12;96503.56;4970244;28;20418;-52
2023/02/02 01:27:17;;;;;;;8.73;1.73;;;7.90;56.20;;;2.94;77.63;96510.84;4970592;28;20534;-49
2023/02/02 01:29:42;;;;;;;6.95;1.85;;;7.90;56.20;;;2.90;78.14;96499.06;4982870;28;20041;-55
2023/02/02 01:32:17;;;;;;;5.65;1.70;;;7.80;56.20;;;2.91;78.60;96490.16;4975391;28;20026;-51
2023/02/02 01:34:46;;;;;;;4.40;1.52;;;7.80;56.20;;;2.93;78.98;96500.50;4984031;28;20109;-54
2023/02/02 01:37:21;;;;;;;13.75;2.13;;;7.80;56.30;;;2.89;78.84;96502.72;4987243;28;20061;-50
2023/02/02 01:39:50;;;;;;;4.38;1.58;;;7.90;56.40;;;2.87;79.47;96490.75;4989964;28;20467;-50
2023/02/02 01:42:25;;;;;;;7.47;1.60;;;7.80;56.40;;;2.85;79.51;96493.59;4989907;28;20396;-52
2023/02/02 01:45:28;;;;;;;12.77;2.13;;;7.80;56.40;;;2.83;79.77;96503.50;4989199;28;20108;-50
2023/02/02 01:47:59;;;;;;;6.80;1.75;;;7.80;56.60;;;2.84;79.50;96502.47;4971820;28;20220;-51
2023/02/02 01:50:32;;;;;;;7.80;1.85;;;7.70;56.60;;;2.81;79.85;96505.50;4988755;28;20084;-50
2023/02/02 01:53:07;;;;;;;15.95;2.15;;;7.80;56.70;;;2.77;80.24;96501.63;4983904;28;20030;-55
2023/02/02 01:55:42;;;;;;;8.68;2.17;;;7.80;56.80;;;2.83;80.29;96497.44;4977435;28;20029;-51
2023/02/02 01:58:29;;;;;;;15.85;1.92;;;7.70;56.80;;;2.79;80.24;96507.53;4972363;28;20496;-53
2023/02/02 02:00:55;;;;;;;10.40;2.25;;;7.70;56.80;;;2.85;80.09;96498.88;4987168;28;20039;-51
2023/02/02 02:03:30;;;;;;;12.70;2.28;;;7.70;56.80;;;2.77;80.77;96486.66;4975078;28;20022;-53
2023/02/02 02:06:06;;;;;;;8.45;1.67;;;7.70;57.00;;;2.75;80.72;96485.22;4988676;28;20489;-52
2023/02/02 02:08:59;;;;;;;12.27;2.17;;;7.70;57.00;;;2.73;81.04;96503.84;4986682;28;20485;-50
2023/02/02 02:11:26;;;;;;;12.20;2.27;;;7.70;57.00;;;2.78;82.09;96500.63;4988701;28;20053;-55
2023/02/02 02:17:09;;;;;;;7.43;2.08;;;7.70;57.30;;;2.51;86.25;96513.59;4981735;28;20560;-50
2023/02/02 02:28:04;;;;;;;13.85;2.75;;;7.30;58.00;;;2.19;89.70;96520.19;4928108;29;20641;-54
2023/02/02 02:31:06;;;;;;;14.68;2.30;;;7.10;58.50;;;2.26;91.33;96526.34;4925169;28;20035;-57
2023/02/02 02:34:21;;;;;;;10.23;2.35;;;7.10;58.90;;;2.16;92.63;96528.47;4981906;28;20022;-56
2023/02/02 02:37:27;;;;;;;9.15;2.08;;;6.90;59.10;;;2.04;94.28;96522.91;4981070;28;20093;-54
2023/02/02 02:40:21;;;;;;;13.85;2.72;;;6.90;59.40;;;1.92;95.90;96516.53;4980677;28;20022;-58
2023/02/02 02:43:28;;;;;;;17.58;2.72;;;6.80;59.80;;;1.81;96.68;96509.94;4988208;28;20029;-56
2023/02/02 02:46:01;;;;;;;16.02;3.22;;;6.70;60.00;;;1.70;97.66;96507.81;4975195;28;20091;-54
2023/02/02 02:48:28;;;;;;;;;;;6.60;60.30;;;1.66;98.55;96505.72;4994511;28;20439;-54
2023/02/02 02:51:48;;;;;;;14.50;2.72;;;6.60;60.40;;;1.55;100.00;96499.97;4974460;28;19915;-59
2023/02/02 02:55:02;;;;;;;10.90;3.00;;;6.40;61.40;;;1.59;100.00;96509.09;4963240;28;20145;-59
2023/02/02 02:58:35;;;;;;;9.07;3.05;;;6.40;61.60;;;1.56;100.00;96512.09;4973445;28;20038;-58
2023/02/02 03:01:32;;;;;;;15.57;2.80;;;6.30;62.00;;;1.52;100.00;96508.22;4947076;28;20132;-59
2023/02/02 03:05:11;;;;;;;19.75;3.05;;;6.30;62.30;;;1.53;100.00;96515.09;4985100;28;20037;-57
2023/02/02 03:08:33;;;;;;;15.82;3.33;;;6.30;62.40;;;1.43;100.00;96509.31;4988019;28;20039;-59
2023/02/02 03:11:10;;;;;;;17.67;3.47;;;6.20;62.90;;;1.48;100.00;96512.22;4956902;28;20496;-57
2023/02/02 03:13:39;;;;;;;9.43;2.92;;;6.20;63.00;;;1.48;100.00;96520.09;4975313;28;20060;-57
2023/02/02 03:16:24;;;;;;;19.33;3.15;;;6.20;63.00;;;1.49;100.00;96529.59;4977193;28;20472;-58
2023/02/02 03:18:54;;;;;;;14.68;3.25;;;6.20;63.20;;;1.47;100.00;96520.25;4992415;28;20053;-58
2023/02/02 03:21:23;;;;;;;17.52;3.72;;;6.20;63.40;;;1.52;100.00;96521.34;4983804;28;20022;-59
2023/02/02 03:23:52;;;;;;;22.63;3.90;;;6.20;63.60;;;1.49;100.00;96518.28;4975777;28;20026;-58
2023/02/02 03:26:27;;;;;;;14.40;3.60;;;6.20;63.80;;;1.53;100.00;96516.91;4992939;28;20021;-58
2023/02/02 03:28:56;;;;;;;12.95;3.65;;;6.20;63.80;;;1.53;100.00;96516.91;4976366;28;20030;-56
2023/02/02 03:31:26;;;;;;;11.05;3.00;;;6.30;63.90;;;1.53;100.00;96520.34;4991094;28;20071;-56
2023/02/02 03:33:56;;;;;;;19.33;3.40;;;6.30;63.90;;;1.53;100.00;96515.09;4993194;28;20030;-55
2023/02/02 03:36:22;;;;;;;18.10;3.65;;;6.30;64.00;;;1.51;100.00;96517.09;4992195;28;20014;-57
2023/02/02 03:38:54;;;;;;;20.52;3.50;;;6.30;63.90;;;1.58;100.00;96522.44;4992263;28;20030;-58
2023/02/02 03:41:26;;;;;;;17.73;3.58;;;6.30;64.00;;;1.52;100.00;96518.72;4992241;28;20022;-59
2023/02/02 03:43:52;;;;;;;9.03;2.77;;;6.30;64.20;;;1.45;100.00;96511.78;4992259;28;20069;-57
2023/02/02 03:46:17;;;;;;;8.13;2.72;;;6.30;64.30;;;1.49;100.00;96513.03;4991626;28;20022;-58
2023/02/02 03:48:43;;;;;;;13.13;2.70;;;6.30;64.40;;;1.56;100.00;96509.47;4958028;28;20448;-59
2023/02/02 03:51:13;;;;;;;12.13;3.13;;;6.30;64.30;;;1.54;100.00;96522.00;4989341;28;20021;-58
2023/02/02 03:53:46;;;;;;;15.77;3.10;;;6.30;64.50;;;1.55;100.00;96525.41;4991970;28;20037;-59
2023/02/02 03:56:19;;;;;;;15.00;3.10;;;6.30;64.50;;;1.54;100.00;96521.19;4974570;28;20026;-59
2023/02/02 03:58:50;;;;;;;17.83;2.90;;;6.30;64.60;;;1.54;100.00;96522.00;4972350;28;20037;-58
2023/02/02 04:01:28;;;;;;;13.40;2.72;;;6.30;64.70;;;1.58;100.00;96519.81;4975481;28;20101;-56
2023/02/02 04:03:56;;;;;;;13.20;3.03;;;6.40;64.90;;;1.59;100.00;96531.94;4973976;28;20029;-58
2023/02/02 04:06:25;;;;;;;12.75;2.80;;;6.30;64.60;;;1.55;100.00;96526.22;4991554;28;20097;-54
2023/02/02 04:08:51;;;;;;;13.15;3.10;;;6.40;64.80;;;1.56;100.00;96527.03;4972358;28;20073;-57
2023/02/02 04:11:17;;;;;;;15.90;2.97;;;6.40;64.90;;;1.58;100.00;96525.88;4987806;28;20025;-57
2023/02/02 04:13:52;;;;;;;20.80;2.90;;;6.40;64.80;;;1.55;100.00;96528.06;4973293;28;20038;-59
2023/02/02 04:16:18;;;;;;;12.68;3.15;;;6.40;64.90;;;1.52;100.00;96537.09;4992352;28;20380;-58
2023/02/02 04:18:44;;;;;;;12.75;2.90;;;6.40;64.90;;;1.54;100.00;96532.50;4982767;28;20045;-57
2023/02/02 04:21:13;;;;;;;10.93;2.83;;;6.40;64.90;;;1.57;100.00;96536.56;4960408;28;20030;-58
2023/02/02 04:23:45;;;;;;;8.38;2.40;;;6.40;64.90;;;1.57;100.00;96534.75;4973458;28;20036;-57
2023/02/02 04:26:17;;;;;;;16.67;2.67;;;6.40;64.90;;;1.58;100.00;96533.75;4991169;28;20029;-59
2023/02/02 04:28:48;;;;;;;9.45;2.75;;;6.40;64.90;;;1.53;100.00;96535.28;4991564;28;20037;-57
2023/02/02 04:31:14;;;;;;;12.15;2.72;;;6.40;65.00;;;1.58;100.00;96539.00;4960637;28;20021;-60
2023/02/02 04:33:40;;;;;;;11.10;2.63;;;6.40;65.00;;;1.59;100.00;96534.56;4991586;28;20427;-55
2023/02/02 04:36:09;;;;;;;14.55;3.30;;;6.40;64.90;;;1.60;100.00;96537.00;4974483;28;20108;-56
2023/02/02 04:38:36;;;;;;;14.00;2.80;;;6.50;65.10;;;1.64;100.00;96540.06;4971237;28;20125;-57
2023/02/02 04:41:23;;;;;;;9.98;2.65;;;6.50;65.00;;;1.58;100.00;96532.94;4973763;28;20030;-58
2023/02/02 04:43:51;;;;;;;7.93;2.75;;;6.50;65.20;;;1.62;99.92;96539.44;4989373;28;20029;-56
2023/02/02 04:46:18;;;;;;;11.40;2.30;;;6.50;65.10;;;1.63;99.46;96535.84;4974601;28;20022;-56
2023/02/02 04:48:43;;;;;;;10.85;3.10;;;6.50;65.10;;;1.61;99.51;96535.19;4973244;28;20484;-55
2023/02/02 04:51:14;;;;;;;15.18;2.90;;;6.50;65.10;;;1.65;99.44;96525.94;4990325;28;20118;-55
2023/02/02 04:53:41;;;;;;;11.73;2.35;;;6.50;65.10;;;1.73;99.79;96535.53;4974434;28;20431;-58
2023/02/02 04:56:14;;;;;;;11.95;3.03;;;6.50;65.00;;;1.67;98.38;96523.13;4990206;28;20048;-58
2023/02/02 04:58:43;;;;;;;;;;;6.50;65.00;;;1.73;98.47;96532.91;4974663;28;20025;-58
2023/02/02 05:01:19;;;;;;;14.02;2.33;;;6.60;64.90;;;1.76;97.84;96537.78;4987378;28;19916;-55
2023/02/02 05:03:54;;;;;;;8.30;2.50;;;6.50;65.00;;;1.76;98.16;96538.59;4970203;28;20034;-55
2023/02/02 05:06:23;;;;;;;9.20;2.40;;;6.60;65.80;;;1.72;97.87;96533.88;4967134;28;20026;-59
2023/02/02 05:08:55;;;;;;;12.13;2.92;;;6.60;64.90;;;1.74;96.92;96534.53;4990217;28;20030;-60
2023/02/02 05:11:23;;;;;;;16.73;2.97;;;6.60;64.80;;;1.72;96.62;96541.75;4973296;28;20035;-56
2023/02/02 05:13:54;;;;;;;8.00;2.45;;;6.60;64.80;;;1.72;96.13;96537.31;4993757;28;20030;-59
2023/02/02 05:16:23;;;;;;;8.07;2.40;;;6.60;64.80;;;1.78;95.51;96535.75;4972056;28;20025;-59
2023/02/02 05:18:56;;;;;;;13.40;2.10;;;6.60;64.70;;;1.80;95.43;96541.66;4980115;28;20120;-59
2023/02/02 05:21:23;;;;;;;;;;;6.60;64.60;;;1.85;95.79;96550.63;4973293;28;20511;-58
2023/02/02 05:23:49;;;;;;;10.80;2.30;;;6.60;64.40;;;1.80;95.42;96542.47;4973253;28;19905;-57
2023/02/02 05:26:22;;;;;;;11.07;2.20;;;6.60;64.50;;;1.88;95.65;96536.31;4969632;28;20045;-58
2023/02/02 05:28:49;;;;;;;7.28;2.45;;;6.70;64.50;;;1.85;94.89;96524.34;4981338;28;20034;-58
2023/02/02 05:31:23;;;;;;;9.70;2.30;;;6.70;64.40;;;1.86;94.34;96530.41;4969712;28;20036;-59
2023/02/02 05:33:52;;;;;;;7.88;1.95;;;6.70;64.40;;;1.89;94.88;96521.34;4965061;28;20033;-59
2023/02/02 05:36:18;;;;;;;8.88;2.28;;;6.70;64.30;;;1.90;94.74;96530.84;4974150;28;20033;-55
2023/02/02 05:38:59;;;;;;;10.98;2.50;;;6.70;64.30;;;1.90;95.03;96530.84;4990859;28;20087;-56
2023/02/02 05:41:27;;;;;;;10.02;2.15;;;6.70;64.30;;;1.88;94.53;96530.22;4973401;28;20030;-58
2023/02/02 05:43:53;;;;;;;13.07;2.72;;;6.70;64.20;;;1.89;93.94;96523.97;4995930;28;20068;-58
2023/02/02 05:46:25;;;;;;;8.15;2.42;;;6.80;64.30;;;1.93;94.41;96528.66;4973737;28;20103;-56
2023/02/02 05:48:53;;;;;;;11.30;2.33;;;6.80;64.20;;;1.97;93.99;96524.66;4971363;28;20034;-57
2023/02/02 05:52:01;;;;;;;10.65;2.33;;;6.80;64.20;;;1.96;94.15;96525.66;4972926;28;20359;-58
2023/02/02 05:54:27;;;;;;;9.75;2.08;;;6.80;64.10;;;1.94;93.69;96529.47;4984100;28;20030;-57
2023/02/02 05:57:01;;;;;;;10.23;2.28;;;6.80;64.00;;;1.95;93.69;96525.84;4989891;28;20488;-56
2023/02/02 05:59:30;;;;;;;10.02;2.35;;;6.80;64.00;;;1.92;93.18;96521.78;4974686;28;20108;-55
2023/02/02 06:01:55;;;;;;;8.18;1.80;;;6.80;63.90;;;1.97;92.61;96523.84;4989122;28;20392;-59
2023/02/02 06:04:30;;;;;;;6.97;2.00;;;6.80;63.90;;;1.98;92.87;96512.34;4982762;28;20034;-57
2023/02/02 06:07:05;;;;;;;9.48;2.50;;;6.90;63.90;;;1.95;92.67;96515.34;4972053;28;20061;-57
2023/02/02 06:09:33;;;;;;;8.75;2.28;;;6.80;63.80;;;2.01;93.07;96525.91;4966439;28;20076;-59
2023/02/02 06:12:02;;;;;;;9.05;2.10;;;6.80;63.80;;;2.02;92.98;96538.03;4985795;28;20133;-57
2023/02/02 06:14:34;;;;;;;9.40;2.25;;;6.90;63.80;;;2.02;92.34;96545.94;4982854;28;20032;-57
2023/02/02 06:17:00;;;;;;;13.07;2.38;;;6.90;63.70;;;1.99;92.39;96548.94;4970229;28;20029;-58
2023/02/02 06:19:26;;;;;;;11.30;2.40;;;6.90;63.60;;;2.03;92.63;96542.28;4989939;28;20407;-58
2023/02/02 06:21:52;;;;;;;11.45;2.35;;;6.90;63.60;;;1.95;91.43;96547.69;4974194;28;20022;-57
2023/02/02 06:24:21;;;;;;;9.80;2.05;;;6.90;63.60;;;2.05;91.72;96544.75;4973770;28;20036;-58
2023/02/02 06:26:49;;;;;;;8.80;2.35;;;6.90;63.60;;;2.07;91.93;96548.81;4979314;28;20026;-55
2023/02/02 06:29:15;;;;;;;6.88;2.63;;;6.90;63.50;;;2.10;91.97;96552.91;4991460;28;20033;-58
2023/02/02 06:31:41;;;;;;;8.70;2.38;;;6.90;63.50;;;2.06;91.46;96549.81;4983945;28;20483;-57
2023/02/02 06:34:14;;;;;;;7.63;2.05;;;6.90;63.50;;;2.08;91.77;96552.25;4979788;28;20113;-56
2023/02/02 06:36:40;;;;;;;8.52;1.90;;;7.00;63.50;;;2.07;91.41;96551.44;4993477;28;20057;-58
2023/02/02 06:39:08;;;;;;;8.73;2.85;;;7.00;63.40;;;2.15;91.60;96549.69;4976390;28;20030;-55
2023/02/02 06:41:37;;;;;;;11.27;2.35;;;7.00;63.40;;;2.17;91.16;96552.97;4977082;28;20423;-57
2023/02/02 06:44:08;;;;;;;8.85;2.05;;;7.00;63.40;;;2.15;90.93;96561.00;4980277;28;20029;-56
2023/02/02 06:46:34;;;;;;;10.85;2.17;;;7.00;63.30;;;2.18;91.33;96570.34;4977455;28;20425;-59
2023/02/02 06:49:06;;;;;;;11.10;2.30;;;7.00;63.30;;;2.21;91.65;96567.34;4979095;28;20338;-57
2023/02/02 06:51:34;;;;;;;8.98;1.83;;;7.00;63.30;;;2.17;91.01;96566.91;4994038;28;20037;-56
2023/02/02 06:54:05;;;;;;;5.80;1.90;;;7.00;63.30;;;2.18;91.86;96580.88;4993777;28;20059;-58
2023/02/02 06:56:34;;;;;;;14.18;2.20;;;7.00;63.20;;;2.21;90.98;96577.84;4972435;28;20293;-55
2023/02/02 06:59:00;;;;;;;10.98;2.33;;;7.10;63.20;;;2.20;90.72;96569.16;4976383;28;20024;-59
2023/02/02 07:01:26;;;;;;;6.10;2.05;;;7.00;63.10;;;2.21;90.90;96572.59;4978810;28;20104;-58
2023/02/02 07:03:52;;;;;;;7.90;2.50;;;7.10;63.20;;;2.21;90.33;96575.22;4968262;28;20080;-57
2023/02/02 07:06:22;;;;;;;6.05;1.83;;;7.10;63.10;;;2.25;90.21;96569.41;4988759;28;20021;-58
2023/02/02 07:08:49;;;;;;;6.30;2.13;;;7.10;63.10;;;2.22;90.30;96561.06;4985776;28;20172;-56
2023/02/02 07:11:16;;;;;;;9.70;2.30;;;7.10;63.00;;;2.23;90.71;96563.53;4974749;28;20388;-57
2023/02/02 07:13:48;;;;;;;12.77;1.63;;;7.10;63.00;;;2.27;90.65;96569.22;4978679;28;20041;-57
2023/02/02 07:16:17;;;;;;;9.93;2.00;;;7.10;63.00;;;2.28;90.15;96568.22;4939299;28;20388;-58
2023/02/02 07:18:46;;;;;;;8.32;2.00;;;7.10;63.00;;;2.27;90.32;96566.59;4972307;28;20042;-57
2023/02/02 07:21:21;;;;;;;9.05;2.03;;;7.20;63.00;;;2.23;89.77;96566.16;4963778;28;20148;-59
2023/02/02 07:23:48;;;;;;;11.63;2.30;;;7.20;63.00;;;2.31;89.70;96573.09;4972288;28;20449;-56
2023/02/02 07:26:17;;;;;;;11.30;2.08;;;7.20;62.90;;;2.27;89.47;96571.84;4988430;28;20026;-58
2023/02/02 07:28:45;;;;;;;8.50;2.10;;;7.20;62.90;;;2.31;89.83;96573.09;4972664;28;20041;-57
2023/02/02 07:31:22;;;;;;;8.57;1.92;;;7.20;62.80;;;2.33;89.75;96570.28;4971241;28;20491;-57
2023/02/02 07:33:52;;;;;;;8.82;2.67;;;7.20;62.70;;;2.31;89.37;96573.91;4959294;28;20025;-57
2023/02/02 07:36:23;;;;;;;5.20;1.98;;;7.20;62.70;;;2.33;89.47;96570.28;4960107;28;20113;-58
2023/02/02 07:38:53;;;;;;;11.05;2.72;;;7.30;62.70;;;2.30;89.38;96574.09;4972991;28;20033;-57
2023/02/02 07:41:20;;;;;;;11.65;2.50;;;7.30;62.70;;;2.32;89.07;96572.13;4972196;28;20056;-57
2023/02/02 07:43:50;;;;;;;7.78;1.90;;;7.30;62.60;;;2.34;88.38;96575.34;4973609;28;20036;-56
2023/02/02 07:46:18;;;;;;;11.68;2.58;;;7.30;62.50;;;2.40;88.39;96574.59;4993632;28;20022;-56
2023/02/02 07:48:45;;;;;;;9.05;2.00;;;7.30;62.50;;;2.42;87.89;96584.94;4974065;28;20039;-57
2023/02/02 07:51:16;;;;;;;11.25;2.33;;;7.40;62.50;;;2.47;87.33;96588.59;4969010;28;20233;-58
2023/02/02 07:53:53;;;;;;;6.25;1.92;;;7.40;62.40;;;2.57;87.45;96590.09;4975968;28;20493;-57
2023/02/02 07:56:27;;;;;;;8.32;2.03;;;7.50;62.40;;;2.59;86.29;96580.22;4975170;28;20021;-57
2023/02/02 07:58:56;;;;;;;11.93;2.15;;;7.50;62.30;;;2.62;86.44;96582.47;4976085;28;20028;-57
2023/02/02 08:01:27;;;;;;;5.82;1.90;;;7.50;62.10;;;2.69;85.95;96593.84;4973705;28;20014;-56
2023/02/02 08:03:57;;;;;;;7.65;2.08;;;7.60;62.00;;;2.71;85.26;96595.31;4975622;28;20082;-54
2023/02/02 08:06:32;;;;;;;7.93;1.80;;;7.70;62.00;;;2.80;85.81;96601.25;4975683;28;20029;-55
2023/02/02 08:09:07;;;;;;;8.25;2.08;;;7.70;61.80;;;2.84;85.26;96599.84;4973351;28;20034;-57
2023/02/02 08:11:36;;;;;;;8.48;2.35;;;7.80;61.80;;;2.86;84.25;96600.47;4992219;28;20063;-57
2023/02/02 08:14:13;;;;;;;8.82;1.95;;;7.80;61.70;;;2.84;84.24;96604.31;4991492;28;20057;-57
2023/02/02 08:16:39;;;;;;;7.20;1.73;;;7.90;61.50;;;2.85;84.04;96598.03;4959907;28;20109;-59
2023/02/02 08:19:10;;;;;;;6.45;2.03;;;7.90;61.40;;;2.83;83.22;96598.22;4981826;23;20133;-55
2023/02/02 08:21:36;;;;;;;7.90;2.13;;;7.90;61.20;;;2.92;83.70;96598.91;4965162;28;20042;-53
2023/02/02 08:24:04;;;;;;;5.30;1.95;;;8.00;61.10;;;2.95;82.94;96601.97;4966256;28;20018;-48
2023/02/02 08:26:31;;;;;;;7.47;1.90;;;8.00;61.00;;;2.95;83.08;96596.72;4944237;28;20058;-53
2023/02/02 08:29:05;;;;;;;10.77;1.90;;;8.10;60.80;;;2.99;82.81;96602.41;4950187;28;20381;-50
2023/02/02 08:31:42;;;;;;;6.53;1.95;;;8.10;60.60;;;3.09;82.55;96604.69;4949664;28;20227;-49
2023/02/02 08:34:12;;;;;;;12.20;1.98;;;8.10;60.50;;;3.08;81.91;96609.16;4951105;28;20179;-49
2023/02/02 08:36:38;;;;;;;6.32;1.73;;;8.20;60.40;;;3.13;82.03;96609.38;4949896;28;20023;-52
2023/02/02 08:39:13;;;;;;;6.70;1.60;;;8.20;60.30;;;3.17;81.88;96610.63;4933035;28;20050;-51
2023/02/02 08:41:54;;;;;;;9.00;1.98;;;8.20;60.10;;;3.19;81.97;96613.84;4965520;28;20031;-51
2023/02/02 08:44:23;;;;;;;4.85;1.77;;;8.30;60.00;;;3.23;81.00;96609.03;4950603;28;20038;-53
2023/02/02 08:46:52;;;;;;;4.68;1.35;;;8.30;60.00;;;3.27;81.61;96618.19;4949836;28;20022;-53
2023/02/02 08:49:18;;;;;;;4.30;1.52;;;8.30;59.90;;;3.28;81.21;96622.44;4949883;28;20058;-48
2023/02/02 08:51:49;;;;;;;7.90;1.92;;;8.40;59.80;;;3.33;80.84;96613.97;4950582;28;20787;-49
2023/02/02 08:54:18;;;;;;;5.93;1.60;;;8.40;59.70;;;3.37;81.09;96609.94;4950794;28;20509;-48
2023/02/02 08:56:44;;;;;;;8.30;2.40;;;8.50;60.30;;;3.43;81.41;96609.97;4949840;28;20373;-51
2023/02/02 08:59:12;;;;;;;7.35;1.92;;;8.50;59.60;;;3.47;80.92;96610.38;4949635;28;20026;-50
2023/02/02 09:01:47;;;;;;;10.77;1.73;;;8.60;59.60;;;3.51;80.44;96618.72;4947827;28;20030;-48
2023/02/02 09:04:19;;;;;;;7.50;1.60;;;8.70;59.50;;;3.52;80.14;96604.53;4950979;28;20031;-50
2023/02/02 09:06:47;;;;;;;6.55;1.60;;;8.70;59.30;;;3.54;79.88;96605.97;4964431;28;20018;-52
2023/02/02 09:09:15;;;;;;;5.30;1.52;;;8.80;59.30;;;3.54;80.36;96611.25;4949987;28;20121;-51
2023/02/02 09:11:48;;;;;;;7.40;1.60;;;8.80;59.10;;;3.56;79.62;96601.31;4935374;28;20117;-48
2023/02/02 09:14:19;;;;;;;6.43;1.60;;;8.80;59.00;;;3.66;80.44;96608.84;4949768;28;20027;-50
2023/02/02 09:16:52;;;;;;;3.65;1.50;;;8.80;59.00;;;3.73;79.39;96617.63;4938398;28;20050;-55
2023/02/02 09:19:23;;;;;;;10.57;1.50;;;8.90;59.00;;;3.75;80.15;96618.22;4949012;28;20117;-50
2023/02/02 09:21:50;;;;;;;5.75;1.67;;;8.90;59.00;;;3.78;79.79;96617.03;4949614;28;20038;-51
2023/02/02 09:24:16;;;;;;;5.70;1.30;;;9.00;58.90;;;3.74;79.57;96608.69;4949022;28;20500;-48
2023/02/02 09:26:44;;;;;;;4.90;1.70;;;9.00;58.70;;;3.79;78.97;96619.47;4948010;28;20436;-52
2023/02/02 09:29:21;;;;;;;7.60;2.13;;;9.00;58.60;;;3.87;78.76;96624.56;4949151;28;20030;-51
2023/02/02 09:31:50;;;;;;;4.15;1.63;;;9.10;58.60;;;3.72;78.41;96616.78;4949456;28;20046;-48
2023/02/02 09:34:23;;;;;;;3.65;1.35;;;9.10;58.40;;;3.76;79.94;96609.31;4950438;28;20054;-53
2023/02/02 09:36:50;;;;;;;6.93;1.70;;;9.10;58.30;;;3.75;78.93;96605.03;4948163;28;20080;-58
2023/02/02 09:39:19;;;;;;;8.43;1.63;;;9.20;58.20;;;3.84;79.10;96616.25;4948175;29;20023;-51
2023/02/02 09:42:31;;;;;;;5.10;1.45;;;9.20;58.10;;;3.83;78.18;96602.25;4948874;29;20033;-50
2023/02/02 09:45:38;;;;;;;9.10;1.50;;;9.30;58.00;;;3.86;78.89;96616.88;4939081;28;20129;-50
2023/02/02 09:48:52;;;;;;;5.13;1.38;;;9.30;57.80;;;3.96;78.63;96637.59;4940994;29;20477;-48
2023/02/02 09:51:27;;;;;;;5.80;1.40;;;9.40;57.70;;;4.03;77.41;96646.31;4937235;29;20092;-59
2023/02/02 09:54:39;;;;;;;5.43;1.42;;;9.40;57.80;;;4.06;77.20;96651.22;4952948;28;20030;-55
2023/02/02 09:57:21;;;;;;;5.32;1.60;;;9.40;57.60;;;4.07;77.66;96666.00;4954390;28;20129;-51
2023/02/02 09:59:53;;;;;;;5.60;1.77;;;9.40;57.60;;;4.03;77.85;96667.41;4953088;28;20033;-50
2023/02/02 10:02:38;;;;;;;6.88;1.73;;;9.40;57.50;;;4.07;77.34;96673.91;4951255;28;20031;-48
2023/02/02 10:05:38;;;;;;;6.35;1.83;;;9.40;57.40;;;4.18;78.29;96681.28;4965885;28;20030;-50
2023/02/02 10:08:20;;;;;;;7.25;1.50;;;9.40;57.40;;;4.12;77.54;96676.78;4959827;28;20138;-54
2023/02/02 10:10:53;;;;;;;2.72;1.58;;;9.40;57.50;;;4.11;78.02;96683.91;4951034;28;20054;-51
2023/02/02 10:13:32;;;;;;;6.20;1.48;;;9.40;57.40;;;4.19;77.75;96682.91;4950842;28;20408;-50
2023/02/02 10:16:18;;;;;;;6.40;1.35;;;9.50;57.40;;;4.13;77.12;96691.59;4961876;28;20031;-48
2023/02/02 10:19:13;;;;;;;5.78;1.60;;;9.50;57.30;;;4.18;76.69;96691.81;4940076;28;20531;-55
2023/02/02 10:22:10;;;;;;;5.85;1.80;;;9.50;57.30;;;4.26;76.46;96701.38;4951255;28;20041;-48
2023/02/02 10:24:36;;;;;;;6.72;1.38;;;9.60;57.10;;;4.33;76.63;96703.06;4951442;28;20027;-51
2023/02/02 10:27:13;;;;;;;2.67;1.15;;;9.70;57.10;;;4.37;76.08;96714.00;4950615;28;20462;-49
2023/02/02 10:29:59;;;;;;;3.95;1.45;;;9.80;57.00;;;4.39;76.09;96704.91;4953632;28;20038;-48
2023/02/02 10:33:05;;;;;;;3.13;1.40;;;9.80;56.90;;;4.34;76.37;96704.66;4950121;28;20046;-48
2023/02/02 10:36:31;;;;;;;6.97;1.40;;;9.80;56.60;;;4.52;76.05;96703.31;4947642;28;20065;-49
2023/02/02 10:39:57;;;;;;;5.32;1.60;;;9.90;56.60;;;4.50;74.97;96698.22;4940563;28;20042;-52
2023/02/02 10:43:46;;;;;;;5.10;1.73;;;10.00;56.60;;;4.62;75.38;96704.53;4966657;28;20126;-53
2023/02/02 10:46:38;;;;;;;5.10;1.30;;;10.00;56.50;;;4.67;75.63;96698.69;4944897;28;20449;-51
2023/02/02 10:49:30;;;;;;;8.52;1.48;;;10.10;56.50;;;4.64;74.80;96705.16;4924617;28;26572;-55
2023/02/02 10:52:10;;;;;;;3.88;1.33;;;10.20;56.40;;;4.70;75.11;96713.28;4950822;28;20030;-52
2023/02/02 10:54:56;;;;;;;3.50;1.25;;;10.20;56.10;;;4.74;74.63;96710.06;4967073;28;20374;-54
2023/02/02 10:57:51;;;;;;;5.90;1.77;;;10.30;56.00;;;4.82;74.55;96701.94;4963344;28;20033;-52
2023/02/02 11:00:52;;;;;;;6.30;1.67;;;10.30;55.90;;;4.73;74.59;96694.41;4943060;28;20058;-48
2023/02/02 11:03:26;;;;;;;7.53;1.90;;;10.40;55.70;;;4.75;74.87;96682.63;4950093;28;20558;-53
2023/02/02 11:08:40;;;;;;;7.63;1.40;;;10.50;55.60;;;4.83;74.63;96674.53;4959708;28;20033;-51
2023/02/02 11:11:41;;;;;;;3.83;1.52;;;10.50;55.30;;;4.82;73.95;96667.63;4950515;28;20282;-51
2023/02/02 11:14:06;;;;;;;6.72;1.58;;;10.70;55.10;;;4.92;74.17;96672.53;4939700;28;20478;-54
2023/02/02 11:16:58;;;;;;;4.60;1.52;;;10.70;55.00;;;4.86;73.52;96665.41;4951031;28;20046;-54
2023/02/02 11:19:30;;;;;;;5.18;1.40;;;10.80;54.70;;;4.92;74.34;96675.16;4949833;28;20180;-52
2023/02/02 11:22:04;;;;;;;6.97;1.30;;;10.90;54.50;;;4.95;73.88;96672.13;4933937;28;20035;-49